createdAt,value
2023-04-17T00:00:31.240Z,8.07
2023-04-17T00:03:01.740Z,7.27
2023-04-17T00:05:31.988Z,7.47
2023-04-17T00:08:00.419Z,7.83
2023-04-17T00:10:29.703Z,7.80
2023-04-17T00:12:57.728Z,6.90
2023-04-17T00:15:25.724Z,7.90
2023-04-17T00:17:53.661Z,7.73
2023-04-17T00:20:21.763Z,7.53
2023-04-17T00:22:49.707Z,8.03
2023-04-17T00:25:17.641Z,7.23
2023-04-17T00:27:47.167Z,8.17
2023-04-17T00:30:15.282Z,8.03
2023-04-17T00:32:43.214Z,7.83
2023-04-17T00:35:11.385Z,9.10
2023-04-17T00:37:39.307Z,7.97
2023-04-17T00:40:08.448Z,7.83
2023-04-17T00:42:36.422Z,7.87
2023-04-17T00:45:06.536Z,8.27
2023-04-17T00:47:34.679Z,8.27
2023-04-17T00:50:03.130Z,8.37
2023-04-17T00:52:31.600Z,10.30
2023-04-17T00:55:00.387Z,7.67
2023-04-17T00:57:28.504Z,7.50
2023-04-17T00:59:57.677Z,7.53
2023-04-17T01:02:27.201Z,8.40
2023-04-17T01:04:55.316Z,8.03
2023-04-17T01:07:23.212Z,7.60
2023-04-17T01:09:51.141Z,7.80
2023-04-17T01:12:20.608Z,7.53
2023-04-17T01:14:48.862Z,7.77
2023-04-17T01:17:19.006Z,7.47
2023-04-17T01:19:49.011Z,8.40
2023-04-17T01:22:17.465Z,7.50
2023-04-17T01:24:46.981Z,8.50
2023-04-17T01:27:15.364Z,8.17
2023-04-17T01:29:43.467Z,8.70
2023-04-17T01:32:11.572Z,8.50
2023-04-17T01:34:39.461Z,9.97
2023-04-17T01:37:07.573Z,9.13
2023-04-17T01:39:35.587Z,8.07
2023-04-17T01:42:05.268Z,9.57
2023-04-17T01:44:33.378Z,7.90
2023-04-17T01:47:01.457Z,8.30
2023-04-17T01:49:29.642Z,9.03
2023-04-17T01:51:57.534Z,8.97
2023-04-17T01:54:26.011Z,8.37
2023-04-17T01:56:55.114Z,9.03
2023-04-17T01:59:24.500Z,9.87
2023-04-17T02:01:52.733Z,9.30
2023-04-17T02:04:21.001Z,9.17
2023-04-17T02:06:48.980Z,8.83
2023-04-17T02:09:16.957Z,8.90
2023-04-17T02:11:44.870Z,9.40
2023-04-17T02:14:12.827Z,9.33
2023-04-17T02:16:46.106Z,9.33
2023-04-17T02:19:14.420Z,9.23
2023-04-17T02:21:42.300Z,9.63
2023-04-17T02:24:10.413Z,9.10
2023-04-17T02:26:38.396Z,9.60
2023-04-17T02:29:06.299Z,9.53
2023-04-17T02:31:34.230Z,9.13
2023-04-17T02:34:03.693Z,9.43
2023-04-17T02:36:32.055Z,9.40
2023-04-17T02:38:59.960Z,9.77
2023-04-17T02:41:27.915Z,10.03
2023-04-17T02:43:56.751Z,9.67
2023-04-17T02:46:24.734Z,9.13
2023-04-17T02:48:52.657Z,8.60
2023-04-17T02:51:21.936Z,10.40
2023-04-17T02:53:50.250Z,9.70
2023-04-17T02:56:18.409Z,9.83
2023-04-17T02:58:46.363Z,8.83
2023-04-17T03:01:14.268Z,10.17
2023-04-17T03:03:43.144Z,9.37
2023-04-17T03:06:11.357Z,9.03
2023-04-17T03:08:40.619Z,9.73
2023-04-17T03:11:08.587Z,9.30
2023-04-17T03:13:37.631Z,8.97
2023-04-17T03:16:06.401Z,9.40
2023-04-17T03:18:36.442Z,10.83
2023-04-17T03:21:04.544Z,9.17
2023-04-17T03:23:32.518Z,10.17
2023-04-17T03:26:02.058Z,9.23
2023-04-17T03:28:29.981Z,10.13
2023-04-17T03:30:59.550Z,10.20
2023-04-17T03:33:27.511Z,9.93
2023-04-17T03:35:55.435Z,9.30
2023-04-17T03:38:23.313Z,9.70
2023-04-17T03:40:51.512Z,9.73
2023-04-17T03:43:20.797Z,9.43
2023-04-17T03:45:48.784Z,11.17
2023-04-17T03:48:16.718Z,12.20
2023-04-17T03:50:44.630Z,10.50
2023-04-17T03:53:12.542Z,9.63
2023-04-17T03:55:40.824Z,10.20
2023-04-17T03:58:08.717Z,12.33
2023-04-17T04:00:38.591Z,11.07
2023-04-17T04:03:06.712Z,10.77
2023-04-17T04:05:34.731Z,15.43
2023-04-17T04:08:02.635Z,15.40
2023-04-17T04:10:32.504Z,11.57
2023-04-17T04:13:00.494Z,10.80
2023-04-17T04:15:28.438Z,10.47
2023-04-17T04:17:57.761Z,10.70
2023-04-17T04:20:25.700Z,13.30
2023-04-17T04:22:53.784Z,13.07
2023-04-17T04:25:21.858Z,10.40
2023-04-17T04:27:50.682Z,11.40
2023-04-17T04:30:18.652Z,10.63
2023-04-17T04:32:46.713Z,10.13
2023-04-17T04:35:16.902Z,9.67
2023-04-17T04:37:46.472Z,10.77
2023-04-17T04:40:14.960Z,9.63
2023-04-17T04:42:43.113Z,10.17
2023-04-17T04:45:11.862Z,11.57
2023-04-17T04:47:39.821Z,11.80
2023-04-17T04:50:08.856Z,10.57
2023-04-17T04:52:38.173Z,10.80
2023-04-17T04:55:07.460Z,10.27
2023-04-17T04:57:36.373Z,12.57
2023-04-17T05:00:06.512Z,9.67
2023-04-17T05:02:34.876Z,10.40
2023-04-17T05:05:03.008Z,11.33
2023-04-17T05:07:31.065Z,10.13
2023-04-17T05:10:00.488Z,10.80
2023-04-17T05:12:28.420Z,8.77
2023-04-17T05:14:56.312Z,9.97
2023-04-17T05:17:24.230Z,10.10
2023-04-17T05:19:52.311Z,10.03
2023-04-17T05:22:20.244Z,9.57
2023-04-17T05:24:48.154Z,10.57
2023-04-17T05:27:17.739Z,10.40
2023-04-17T05:29:45.722Z,9.50
2023-04-17T05:32:13.650Z,9.67
2023-04-17T05:34:41.529Z,9.33
2023-04-17T05:37:09.658Z,9.40
2023-04-17T05:39:38.052Z,12.33
2023-04-17T05:42:06.145Z,10.53
2023-04-17T05:44:35.448Z,10.30
2023-04-17T05:47:03.679Z,12.00
2023-04-17T05:49:31.619Z,9.47
2023-04-17T05:51:59.550Z,9.47
2023-04-17T05:54:28.998Z,10.57
2023-04-17T05:56:56.988Z,9.80
2023-04-17T05:59:25.324Z,10.27
2023-04-17T06:01:54.707Z,10.20
2023-04-17T06:04:22.915Z,10.73
2023-04-17T06:06:51.079Z,12.53
2023-04-17T06:09:19.264Z,10.43
2023-04-17T06:11:47.292Z,9.80
2023-04-17T06:14:15.199Z,9.70
2023-04-17T06:16:45.892Z,10.20
2023-04-17T06:19:15.316Z,9.37
2023-04-17T06:21:43.212Z,9.77
2023-04-17T06:24:11.148Z,9.80
2023-04-17T06:26:39.076Z,10.07
2023-04-17T06:29:06.972Z,11.37
2023-04-17T06:31:35.008Z,10.23
2023-04-17T06:34:03.071Z,9.87
2023-04-17T06:36:33.335Z,10.80
2023-04-17T06:39:01.244Z,11.07
2023-04-17T06:41:29.152Z,11.43
2023-04-17T06:43:57.106Z,11.50
2023-04-17T06:46:25.105Z,10.50
2023-04-17T06:48:53.024Z,12.00
2023-04-17T06:51:21.769Z,13.13
2023-04-17T06:53:51.110Z,11.33
2023-04-17T06:56:19.499Z,13.47
2023-04-17T06:58:47.706Z,12.97
2023-04-17T07:01:15.963Z,12.10
2023-04-17T07:03:44.621Z,15.23
2023-04-17T07:06:12.665Z,14.80
2023-04-17T07:08:40.623Z,11.93
2023-04-17T07:11:09.924Z,15.10
2023-04-17T07:13:37.907Z,12.63
2023-04-17T07:16:06.889Z,11.70
2023-04-17T07:18:34.990Z,13.10
2023-04-17T07:21:03.077Z,13.17
2023-04-17T07:23:31.147Z,12.00
2023-04-17T07:25:59.206Z,12.87
2023-04-17T07:28:28.511Z,12.40
2023-04-17T07:30:58.173Z,15.13
2023-04-17T07:33:26.500Z,13.87
2023-04-17T07:35:54.433Z,12.10
2023-04-17T07:38:22.340Z,12.67
2023-04-17T07:40:50.260Z,12.73
2023-04-17T07:43:18.433Z,12.80
2023-04-17T07:45:49.000Z,11.63
2023-04-17T07:48:18.631Z,12.63
2023-04-17T07:50:47.074Z,11.90
2023-04-17T07:53:15.045Z,12.90
2023-04-17T07:55:42.928Z,11.73
2023-04-17T07:58:11.453Z,12.40
2023-04-17T08:00:39.461Z,12.43
2023-04-17T08:03:09.165Z,10.60
2023-04-17T08:05:37.266Z,10.87
2023-04-17T08:08:05.788Z,10.57
2023-04-17T08:10:33.753Z,10.90
2023-04-17T08:13:01.861Z,10.70
2023-04-17T08:15:29.952Z,11.33
2023-04-17T08:17:58.556Z,10.50
2023-04-17T08:20:28.187Z,10.30
2023-04-17T08:22:56.099Z,10.63
2023-04-17T08:25:24.232Z,10.10
2023-04-17T08:27:52.962Z,10.07
2023-04-17T08:30:21.130Z,9.43
2023-04-17T08:32:52.236Z,10.03
2023-04-17T08:35:20.838Z,9.60
2023-04-17T08:37:50.553Z,10.10
2023-04-17T08:40:18.930Z,9.13
2023-04-17T08:42:48.284Z,9.97
2023-04-17T08:45:17.483Z,9.63
2023-04-17T08:47:45.511Z,8.87
2023-04-17T08:50:14.961Z,8.50
2023-04-17T08:52:46.591Z,9.27
2023-04-17T08:55:16.898Z,8.83
2023-04-17T08:57:58.317Z,8.60
2023-04-17T09:00:27.609Z,9.83
2023-04-17T09:02:57.297Z,9.73
2023-04-17T09:05:26.860Z,8.67
2023-04-17T09:08:08.653Z,8.87
2023-04-17T09:10:39.217Z,7.27
2023-04-17T09:13:07.622Z,7.00
2023-04-17T09:15:36.249Z,7.20
2023-04-17T09:18:04.456Z,6.47
2023-04-17T09:20:32.650Z,6.50
2023-04-17T09:23:02.590Z,7.27
2023-04-17T09:25:31.007Z,7.10
2023-04-17T09:28:12.814Z,6.53
2023-04-17T09:30:41.637Z,7.07
2023-04-17T09:33:12.131Z,7.00
2023-04-17T09:35:40.670Z,7.07
2023-04-17T09:38:08.793Z,6.57
2023-04-17T09:40:41.103Z,6.93
2023-04-17T09:43:11.516Z,7.93
2023-04-17T09:45:42.794Z,7.57
2023-04-17T09:48:12.226Z,6.30
2023-04-17T09:50:41.278Z,6.73
2023-04-17T09:53:10.211Z,6.57
2023-04-17T09:55:39.725Z,7.63
2023-04-17T09:58:09.338Z,6.77
2023-04-17T10:00:42.838Z,6.87
2023-04-17T10:03:11.531Z,7.27
2023-04-17T10:05:40.048Z,7.07
2023-04-17T10:08:08.417Z,7.30
2023-04-17T10:10:36.592Z,8.00
2023-04-17T10:13:08.670Z,6.87
2023-04-17T10:15:38.273Z,7.37
2023-04-17T10:18:23.388Z,6.70
2023-04-17T10:20:53.627Z,6.70
2023-04-17T10:23:32.724Z,6.33
2023-04-17T10:26:43.256Z,6.77
2023-04-17T10:29:12.764Z,6.57
2023-04-17T10:32:20.594Z,6.87
2023-04-17T10:34:50.040Z,6.00
2023-04-17T10:37:17.948Z,7.07
2023-04-17T10:39:57.734Z,7.07
2023-04-17T10:42:26.713Z,6.30
2023-04-17T10:44:59.785Z,6.47
2023-04-17T10:47:32.385Z,6.30
2023-04-17T10:50:06.379Z,6.13
2023-04-17T10:52:42.094Z,6.07
2023-04-17T10:55:11.252Z,5.80
2023-04-17T10:57:56.841Z,4.97
2023-04-17T11:00:38.005Z,4.93
2023-04-17T11:03:07.268Z,5.83
2023-04-17T11:05:36.755Z,4.80
2023-04-17T11:08:04.750Z,4.70
2023-04-17T11:10:37.122Z,5.10
2023-04-17T11:13:05.708Z,4.70
2023-04-17T11:15:35.423Z,4.57
2023-04-17T11:18:04.037Z,3.73
2023-04-17T11:20:34.151Z,4.63
2023-04-17T11:23:04.159Z,4.37
2023-04-17T11:25:34.399Z,3.90
2023-04-17T11:28:04.451Z,4.23
2023-04-17T11:30:34.262Z,4.07
2023-04-17T11:33:03.206Z,3.60
2023-04-17T11:35:33.095Z,3.33
2023-04-17T11:38:17.866Z,3.50
2023-04-17T11:40:47.615Z,3.90
2023-04-17T11:43:15.666Z,3.67
2023-04-17T11:45:45.019Z,3.40
2023-04-17T11:48:14.160Z,3.60
2023-04-17T11:50:43.604Z,3.30
2023-04-17T11:53:16.670Z,3.40
2023-04-17T11:55:45.644Z,3.80
2023-04-17T11:58:15.290Z,3.50
2023-04-17T12:00:43.722Z,2.87
2023-04-17T12:03:35.110Z,3.90
2023-04-17T12:06:04.827Z,3.60
2023-04-17T12:08:44.937Z,3.73
2023-04-17T12:11:25.161Z,3.60
2023-04-17T12:13:53.340Z,4.13
2023-04-17T12:16:21.461Z,3.87
2023-04-17T12:18:49.560Z,4.43
2023-04-17T12:21:18.053Z,4.90
2023-04-17T12:23:47.424Z,4.23
2023-04-17T12:26:15.418Z,4.00
2023-04-17T12:28:43.437Z,3.77
2023-04-17T12:31:11.458Z,3.40
2023-04-17T12:33:39.475Z,3.93
2023-04-17T12:36:08.516Z,4.03
2023-04-17T12:38:36.537Z,3.93
2023-04-17T12:41:05.885Z,3.60
2023-04-17T12:43:34.199Z,3.63
2023-04-17T12:46:03.233Z,3.20
2023-04-17T12:48:33.010Z,3.57
2023-04-17T12:51:01.342Z,3.10
2023-04-17T12:53:30.071Z,3.50
2023-04-17T12:55:58.792Z,3.30
2023-04-17T12:58:28.093Z,3.20
2023-04-17T13:00:56.098Z,3.40
2023-04-17T13:03:24.211Z,2.90
2023-04-17T13:05:53.386Z,3.10
2023-04-17T13:08:21.534Z,2.77
2023-04-17T13:10:49.436Z,2.93
2023-04-17T13:13:17.319Z,3.00
2023-04-17T13:15:47.942Z,3.20
2023-04-17T13:18:16.008Z,3.43
2023-04-17T13:20:43.957Z,3.43
2023-04-17T13:23:12.048Z,3.37
2023-04-17T13:25:40.030Z,3.77
2023-04-17T13:28:07.965Z,3.00
2023-04-17T13:30:37.256Z,2.90
2023-04-17T13:33:06.900Z,4.07
2023-04-17T13:35:34.836Z,3.80
2023-04-17T13:38:03.198Z,3.40
2023-04-17T13:40:31.248Z,3.40
2023-04-17T13:43:00.380Z,3.33
2023-04-17T13:45:28.421Z,3.40
2023-04-17T13:47:56.393Z,3.60
2023-04-17T13:50:25.702Z,3.60
2023-04-17T13:52:53.727Z,3.50
2023-04-17T13:55:21.689Z,4.23
2023-04-17T13:57:51.054Z,4.10
2023-04-17T14:00:20.877Z,4.30
2023-04-17T14:02:49.174Z,4.13
2023-04-17T14:05:17.311Z,4.03
2023-04-17T14:07:46.595Z,4.77
2023-04-17T14:10:14.560Z,3.93
2023-04-17T14:12:42.528Z,4.43
2023-04-17T14:15:11.563Z,3.60
2023-04-17T14:17:43.389Z,3.50
2023-04-17T14:20:12.402Z,3.10
2023-04-17T14:22:40.313Z,4.10
2023-04-17T14:25:10.556Z,3.70
2023-04-17T14:27:41.318Z,3.43
2023-04-17T14:30:10.153Z,3.60
2023-04-17T14:32:38.682Z,3.60
2023-04-17T14:35:07.645Z,3.63
2023-04-17T14:37:35.623Z,3.33
2023-04-17T14:40:04.796Z,3.43
2023-04-17T14:42:38.241Z,3.63
2023-04-17T14:45:15.261Z,3.73
2023-04-17T14:47:44.000Z,3.80
2023-04-17T14:52:43.135Z,3.60
2023-04-17T14:55:12.492Z,3.90
2023-04-17T14:57:41.913Z,3.50
2023-04-17T15:00:10.636Z,3.30
2023-04-17T15:02:39.543Z,3.60
2023-04-17T15:05:08.499Z,3.70
2023-04-17T15:07:36.517Z,3.57
2023-04-17T15:10:04.977Z,3.53
2023-04-17T15:12:32.908Z,3.03
2023-04-17T15:15:02.252Z,3.90
2023-04-17T15:17:30.200Z,3.30
2023-04-17T15:20:00.373Z,4.00
2023-04-17T15:22:28.642Z,3.47
2023-04-17T15:24:56.591Z,3.63
2023-04-17T15:27:24.698Z,3.50
2023-04-17T15:29:52.936Z,3.47
2023-04-17T15:32:22.314Z,3.50
2023-04-17T15:34:50.249Z,3.77
2023-04-17T15:37:18.154Z,3.67
2023-04-17T15:39:46.229Z,3.60
2023-04-17T15:42:14.179Z,3.73
2023-04-17T15:44:42.150Z,4.17
2023-04-17T15:47:10.120Z,3.60
2023-04-17T15:49:39.448Z,4.40
2023-04-17T15:52:07.662Z,4.30
2023-04-17T15:54:35.638Z,4.20
2023-04-17T15:57:03.517Z,4.73
2023-04-17T15:59:32.058Z,4.53
2023-04-17T16:02:00.226Z,4.03
2023-04-17T16:04:28.686Z,4.90
2023-04-17T16:06:58.084Z,5.00
2023-04-17T16:09:25.985Z,5.33
2023-04-17T16:11:53.867Z,5.60
2023-04-17T16:14:21.827Z,5.13
2023-04-17T16:16:49.714Z,4.57
2023-04-17T16:19:17.642Z,5.23
2023-04-17T16:21:45.591Z,5.07
2023-04-17T16:24:14.914Z,3.93
2023-04-17T16:26:42.816Z,4.40
2023-04-17T16:29:10.927Z,4.53
2023-04-17T16:31:38.907Z,5.27
2023-04-17T16:34:06.846Z,5.07
2023-04-17T16:36:34.787Z,4.40
2023-04-17T16:39:03.627Z,5.20
2023-04-17T16:41:32.939Z,4.37
2023-04-17T16:44:01.008Z,4.40
2023-04-17T16:46:40.320Z,4.40
2023-04-17T16:49:16.877Z,4.53
2023-04-17T16:51:47.195Z,4.50
2023-04-17T16:54:19.437Z,4.57
2023-04-17T16:56:49.254Z,4.17
2023-04-17T16:59:17.387Z,3.93
2023-04-17T17:01:47.072Z,4.00
2023-04-17T17:04:15.229Z,4.70
2023-04-17T17:06:43.415Z,4.17
2023-04-17T17:09:11.590Z,3.70
2023-04-17T17:11:39.714Z,3.70
2023-04-17T17:14:09.044Z,3.93
2023-04-17T17:16:37.049Z,3.93
2023-04-17T17:19:06.015Z,3.87
2023-04-17T17:21:34.231Z,3.93
2023-04-17T17:24:02.144Z,4.10
2023-04-17T17:26:30.110Z,4.00
2023-04-17T17:28:58.197Z,4.33
2023-04-17T17:31:27.516Z,4.00
2023-04-17T17:33:55.928Z,4.13
2023-04-17T17:36:23.835Z,3.57
2023-04-17T17:38:55.893Z,4.70
2023-04-17T17:41:24.151Z,4.07
2023-04-17T17:43:52.424Z,4.20
2023-04-17T17:46:21.304Z,4.07
2023-04-17T17:48:50.765Z,4.17
2023-04-17T17:51:18.686Z,4.30
2023-04-17T17:53:46.632Z,4.50
2023-04-17T17:56:15.199Z,4.60
2023-04-17T17:58:43.091Z,4.50
2023-04-17T18:01:11.071Z,4.50
2023-04-17T18:03:39.088Z,4.47
2023-04-17T18:06:08.507Z,3.90
2023-04-17T18:08:38.398Z,4.70
2023-04-17T18:11:06.393Z,4.10
2023-04-17T18:13:34.379Z,4.30
2023-04-17T18:16:04.656Z,5.47
2023-04-17T18:18:32.807Z,4.70
2023-04-17T18:21:00.818Z,4.43
2023-04-17T18:23:30.121Z,4.70
2023-04-17T18:25:58.891Z,5.33
2023-04-17T18:28:27.004Z,4.40
2023-04-17T18:30:55.106Z,4.30
2023-04-17T18:33:23.092Z,4.60
2023-04-17T18:35:51.079Z,5.03
2023-04-17T18:38:19.066Z,4.33
2023-04-17T18:40:48.353Z,4.67
2023-04-17T18:43:16.300Z,5.00
2023-04-17T18:45:44.228Z,4.90
2023-04-17T18:48:12.124Z,4.60
2023-04-17T18:50:40.152Z,4.70
2023-04-17T18:53:08.078Z,4.77
2023-04-17T18:55:37.210Z,4.57
2023-04-17T18:58:06.549Z,4.40
2023-04-17T19:00:34.524Z,4.70
2023-04-17T19:03:02.460Z,4.40
2023-04-17T19:05:30.456Z,4.27
2023-04-17T19:07:58.376Z,3.70
2023-04-17T19:10:26.324Z,3.93
2023-04-17T19:12:54.224Z,3.80
2023-04-17T19:15:24.308Z,4.23
2023-04-17T19:17:52.811Z,3.90
2023-04-17T19:20:22.764Z,4.33
2023-04-17T19:22:50.766Z,4.33
2023-04-17T19:25:18.740Z,4.40
2023-04-17T19:27:46.693Z,4.30
2023-04-17T19:30:14.777Z,4.23
2023-04-17T19:32:44.667Z,3.83
2023-04-17T19:35:12.623Z,3.90
2023-04-17T19:37:40.528Z,3.77
2023-04-17T19:40:21.384Z,3.83
2023-04-17T19:42:52.645Z,3.93
2023-04-17T19:45:20.887Z,3.50
2023-04-17T19:47:55.047Z,3.60
2023-04-17T19:50:23.816Z,3.90
2023-04-17T19:52:51.997Z,3.63
2023-04-17T19:55:20.140Z,3.97
2023-04-17T19:57:49.468Z,3.63
2023-04-17T20:00:17.784Z,3.70
2023-04-17T20:02:46.218Z,4.30
2023-04-17T20:05:17.017Z,4.23
2023-04-17T20:07:44.920Z,4.20
2023-04-17T20:10:13.073Z,3.83
2023-04-17T20:12:41.066Z,3.30
2023-04-17T20:15:10.358Z,4.43
2023-04-17T20:17:38.423Z,4.07
2023-04-17T20:20:07.815Z,4.23
2023-04-17T20:22:37.140Z,4.70
2023-04-17T20:25:05.613Z,3.77
2023-04-17T20:27:33.542Z,4.47
2023-04-17T20:30:01.489Z,7.57
2023-04-17T20:32:29.391Z,6.53
2023-04-17T20:34:57.355Z,6.53
2023-04-17T20:37:25.300Z,6.63
2023-04-17T20:39:54.613Z,5.87
2023-04-17T20:42:22.543Z,6.33
2023-04-17T20:44:50.458Z,6.50
2023-04-17T20:47:18.339Z,5.20
2023-04-17T20:49:46.300Z,5.73
2023-04-17T20:52:14.189Z,5.03
2023-04-17T20:54:42.209Z,6.07
2023-04-17T20:57:11.537Z,6.00
2023-04-17T20:59:39.425Z,5.43
2023-04-17T21:02:07.475Z,5.17
2023-04-17T21:04:35.505Z,6.47
2023-04-17T21:07:03.588Z,4.67
2023-04-17T21:09:31.545Z,5.40
2023-04-17T21:11:59.466Z,5.10
2023-04-17T21:14:29.572Z,5.60
2023-04-17T21:16:58.586Z,5.00
2023-04-17T21:19:27.359Z,6.20
2023-04-17T21:21:55.424Z,5.50
2023-04-17T21:24:23.362Z,5.60
2023-04-17T21:26:51.339Z,6.13
2023-04-17T21:29:19.283Z,5.80
2023-04-17T21:31:48.635Z,6.17
2023-04-17T21:34:16.575Z,5.93
2023-04-17T21:36:44.523Z,5.57
2023-04-17T21:39:12.414Z,6.17
2023-04-17T21:41:40.312Z,5.83
2023-04-17T21:44:10.297Z,5.47
2023-04-17T21:46:38.679Z,5.90
2023-04-17T21:49:07.963Z,5.67
2023-04-17T21:51:35.970Z,5.50
2023-04-17T21:54:04.235Z,5.67
2023-04-17T21:56:33.105Z,5.60
2023-04-17T21:59:01.008Z,6.07
2023-04-17T22:01:29.148Z,5.50
2023-04-17T22:03:57.063Z,6.00
2023-04-17T22:06:26.554Z,6.30
2023-04-17T22:08:54.468Z,5.43
2023-04-17T22:11:23.138Z,6.77
2023-04-17T22:13:51.052Z,5.47
2023-04-17T22:16:18.978Z,5.90
2023-04-17T22:18:46.938Z,5.80
2023-04-17T22:21:14.917Z,5.80
2023-04-17T22:23:44.281Z,5.37
2023-04-17T22:26:12.301Z,5.47
2023-04-17T22:28:40.212Z,5.60
2023-04-17T22:31:08.193Z,5.60
2023-04-17T22:33:36.133Z,5.47
2023-04-17T22:36:04.260Z,5.97
2023-04-17T22:38:32.221Z,4.97
2023-04-17T22:41:01.609Z,6.13
2023-04-17T22:43:29.549Z,5.53
2023-04-17T22:45:57.557Z,5.67
2023-04-17T22:48:25.671Z,5.57
2023-04-17T22:50:53.623Z,5.80
2023-04-17T22:53:22.495Z,5.47
2023-04-17T22:56:02.279Z,6.17
2023-04-17T22:58:32.348Z,6.50
2023-04-17T23:01:03.013Z,5.70
2023-04-17T23:03:31.003Z,5.80
2023-04-17T23:05:58.923Z,5.57
2023-04-17T23:08:26.956Z,5.03
2023-04-17T23:10:59.767Z,5.87
2023-04-17T23:13:29.245Z,6.07
2023-04-17T23:15:57.292Z,5.60
2023-04-17T23:18:25.461Z,6.03
2023-04-17T23:20:53.394Z,5.20
2023-04-17T23:23:21.602Z,5.90
2023-04-17T23:25:49.503Z,5.27
2023-04-17T23:28:17.452Z,5.37
2023-04-17T23:30:46.751Z,5.40
2023-04-17T23:33:14.676Z,5.30
2023-04-17T23:35:42.577Z,5.83
2023-04-17T23:38:10.503Z,6.30
2023-04-17T23:40:38.437Z,5.47
2023-04-17T23:43:06.348Z,5.60
2023-04-17T23:45:34.257Z,5.03
2023-04-17T23:48:03.599Z,5.70
2023-04-17T23:50:31.513Z,5.43
2023-04-17T23:52:59.434Z,5.87
2023-04-17T23:55:27.424Z,5.60
2023-04-17T23:57:55.381Z,6.17
